Enter the Airport ICAO Code

Search by Airport or City

Current Weather

SBGL | Rio de Janeiro–Galeão International Airport

Rio de Janeiro, Brazil

Last Update 50 Minutes Ago

Clear Sky

Temperature of 27 ºC

Light to Moderate Winds from SouthEast

Temperature

27 ºC

Dew Point Temperature

18 ºC

Relative Humidity

58.07 %

Wind Direction

SouthEast (130º, Ranging from 090º to 170º)

Wind Velocity

13 km/h (07 kt)

Gusts

None

Visibility

No Significant Reductions

Sea Level Pressure

1015 hPa (Hectopascals)

Layers of Clouds

None

METAR SBGL 121500Z 13007KT 090V170 CAVOK 27/18 Q1015

Weather Forecast

SBGL | Rio de Janeiro–Galeão International Airport

Rio de Janeiro, Brazil

Forecast valid for the next 26 Hours

From now on it is expected:

Light to Moderate Winds from NorthEast

In 4 to 6 hours it is expected the begining of:

Moderate Winds from South

In 10 to 12 hours it is expected the begining of:

Light Winds from East

In 16 to 18 hours it is expected the begining of:

Light to Moderate Winds from NorthEast

Maximum Temperature

31 ºC in 1 Hour

Minimum Temperature

20 ºC in 17 Hours

TAF SBGL 120900Z 1212/1318 00000KT CAVOK TX31/1217Z TN20/1309Z BECMG 1214/1216 05006KT BECMG 1220/1222 16012KT BECMG 1302/1304 11004KT BECMG 1308/1310 05008KT RMK PDV